Time;durP1;ratioP1;P1;durP2;ratioP2;P2;SDS_P1;SDS_P2;PMS_P1;PMS_P2;Temp;Humidity;BMP_temperature;BMP_pressure;BME280_temperature;BME280_humidity;BME280_pressure;Samples;Min_cycle;Max_cycle;Signal;HPM_P1;HPM_P2
2021/03/29 00:00:42;;;;;;;8.52;1.65;;;;;;;10.14;73.99;101319.03;4904717;29;20051;-74
2021/03/29 00:03:07;;;;;;;15.65;1.92;;;;;;;10.09;73.54;101317.03;4906106;29;20034;-75
2021/03/29 00:05:34;;;;;;;7.95;1.95;;;;;;;10.09;73.69;101316.16;4902954;29;20445;-73
2021/03/29 00:08:07;;;;;;;11.80;2.00;;;;;;;10.06;74.46;101316.66;4918747;29;20024;-73
2021/03/29 00:10:35;;;;;;;15.23;1.67;;;;;;;10.06;74.51;101311.19;4898897;29;20036;-74
2021/03/29 00:13:04;;;;;;;10.63;1.95;;;;;;;10.04;73.64;101313.34;4913942;29;20032;-73
2021/03/29 00:15:38;;;;;;;13.43;1.63;;;;;;;10.07;74.04;101315.59;4914474;29;20032;-75
2021/03/29 00:18:13;;;;;;;9.23;1.33;;;;;;;10.03;74.14;101296.13;4915396;29;20043;-75
2021/03/29 00:20:45;;;;;;;10.25;1.95;;;;;;;10.08;73.36;101326.28;4915221;29;20032;-76
2021/03/29 00:23:10;;;;;;;9.70;1.65;;;;;;;10.07;73.59;101329.25;4905810;29;20027;-74
2021/03/29 00:25:36;;;;;;;8.93;1.85;;;;;;;10.09;74.27;101321.63;4888239;29;20040;-75
2021/03/29 00:28:03;;;;;;;9.52;1.45;;;;;;;10.10;74.39;101328.78;4907071;29;20035;-74
2021/03/29 00:30:35;;;;;;;14.45;2.42;;;;;;;10.14;74.02;101336.25;4894513;29;20450;-73
2021/03/29 00:33:02;;;;;;;11.52;1.40;;;;;;;10.16;73.89;101330.53;4906930;29;20029;-74
2021/03/29 00:35:28;;;;;;;9.10;2.08;;;;;;;10.21;73.34;101330.66;4915559;29;20076;-73
2021/03/29 00:37:57;;;;;;;15.43;2.40;;;;;;;10.17;73.93;101324.00;4904207;29;20379;-74
2021/03/29 00:40:24;;;;;;;7.22;2.15;;;;;;;10.22;73.37;101329.59;4911672;29;20084;-73
2021/03/29 00:42:56;;;;;;;7.40;1.75;;;;;;;10.20;73.98;101318.06;4919273;29;20024;-73
2021/03/29 00:45:21;;;;;;;14.57;1.75;;;;;;;10.21;73.23;101358.00;4923442;29;20077;-73
2021/03/29 00:47:47;;;;;;;3.28;1.15;;;;;;;10.17;73.61;101334.94;4912864;29;20459;-73
2021/03/29 00:50:20;;;;;;;10.52;1.70;;;;;;;10.20;73.70;101328.97;4921662;29;20498;-73
2021/03/29 00:52:46;;;;;;;26.65;2.22;;;;;;;10.18;73.81;101331.16;4923510;29;20032;-73
2021/03/29 00:55:12;;;;;;;20.65;2.90;;;;;;;10.16;73.82;101322.34;4906378;29;20031;-74
2021/03/29 00:57:39;;;;;;;18.08;2.10;;;;;;;10.18;74.09;101325.69;4910992;29;20047;-74
2021/03/29 01:00:32;;;;;;;9.52;1.60;;;;;;;10.21;74.20;101333.38;4894908;29;20039;-72
2021/03/29 01:02:58;;;;;;;7.80;1.95;;;;;;;10.22;73.73;101332.31;4906727;29;20044;-71
2021/03/29 01:05:23;;;;;;;8.10;1.50;;;;;;;10.26;73.93;101328.00;4915153;29;20370;-73
2021/03/29 01:07:52;;;;;;;11.07;1.80;;;;;;;10.25;73.81;101325.53;4906431;29;20123;-73
2021/03/29 01:10:19;;;;;;;6.05;2.05;;;;;;;10.27;73.39;101324.22;4910250;29;20031;-71
2021/03/29 01:12:45;;;;;;;16.58;2.70;;;;;;;10.29;73.35;101323.97;4917786;29;20068;-73
2021/03/29 01:15:14;;;;;;;8.88;1.58;;;;;;;10.23;74.19;101328.50;4917763;29;20478;-73
2021/03/29 01:17:43;;;;;;;5.07;1.40;;;;;;;10.25;73.83;101325.53;4917165;29;20036;-74
2021/03/29 01:20:19;;;;;;;17.73;1.60;;;;;;;10.24;74.02;101324.69;4909388;29;20471;-72
2021/03/29 01:22:48;;;;;;;8.52;1.50;;;;;;;10.18;74.04;101325.69;4918513;29;20051;-73
2021/03/29 01:25:39;;;;;;;12.85;2.45;;;;;;;10.23;74.58;101327.69;4905456;29;20051;-73
2021/03/29 01:28:10;;;;;;;6.45;2.15;;;;;;;10.23;73.92;101324.94;4916629;29;20055;-74
2021/03/29 01:30:38;;;;;;;9.93;1.75;;;;;;;10.23;74.26;101333.97;4909909;29;20032;-75
2021/03/29 01:33:06;;;;;;;20.30;1.80;;;;;;;10.20;74.02;101345.38;4908617;29;20059;-74
2021/03/29 01:35:32;;;;;;;10.00;1.50;;;;;;;10.19;74.33;101338.28;4900352;29;20047;-74
2021/03/29 01:37:59;;;;;;;15.13;2.85;;;;;;;10.13;73.84;101336.47;4911891;29;20096;-75
2021/03/29 01:40:25;;;;;;;7.75;1.98;;;;;;;10.12;74.48;101334.84;4909312;29;20031;-74
2021/03/29 01:42:51;;;;;;;10.88;1.88;;;;;;;10.11;74.30;101330.44;4910636;29;20363;-72
2021/03/29 01:45:19;;;;;;;19.80;2.38;;;;;;;10.08;74.55;101326.28;4910151;29;20032;-74
2021/03/29 01:47:45;;;;;;;8.73;1.83;;;;;;;10.05;74.45;101309.56;4893654;29;20028;-74
2021/03/29 01:50:34;;;;;;;8.38;2.30;;;;;;;10.07;74.25;101315.59;4907554;29;20052;-75
2021/03/29 01:53:00;;;;;;;14.50;2.38;;;;;;;10.08;74.08;101311.78;4899479;29;20059;-75
2021/03/29 01:55:28;;;;;;;10.10;1.40;;;;;;;10.11;74.20;101303.13;4907138;29;20047;-74
2021/03/29 01:57:54;;;;;;;12.88;2.22;;;;;;;10.06;74.70;101311.19;4923453;29;20038;-73
2021/03/29 02:00:29;;;;;;;9.48;2.40;;;;;;;9.99;74.99;101326.88;4917999;29;20036;-73
2021/03/29 02:02:55;;;;;;;6.75;1.45;;;;;;;10.01;74.32;101316.56;4908542;29;20035;-73
2021/03/29 02:05:22;;;;;;;9.30;1.67;;;;;;;9.99;74.20;101314.06;4913575;29;20032;-73
2021/03/29 02:07:51;;;;;;;14.40;1.92;;;;;;;9.98;74.46;101319.78;4911111;29;20035;-73
2021/03/29 02:10:20;;;;;;;4.38;1.80;;;;;;;9.93;74.48;101302.19;4919442;29;20035;-74
2021/03/29 02:12:46;;;;;;;9.70;1.95;;;;;;;9.94;74.37;101303.88;4906733;29;20036;-73
2021/03/29 02:15:15;;;;;;;11.98;2.45;;;;;;;9.98;74.51;101306.94;4918808;29;20599;-74
2021/03/29 02:17:42;;;;;;;15.30;2.60;;;;;;;10.00;75.07;101309.44;4921341;29;20039;-74
2021/03/29 02:20:13;;;;;;;10.20;2.10;;;;;;;9.99;74.47;101305.03;4934038;29;20094;-75
2021/03/29 02:22:45;;;;;;;13.40;2.25;;;;;;;9.92;74.84;101306.00;4928444;29;20037;-74
2021/03/29 02:25:11;;;;;;;15.10;2.58;;;;;;;9.91;75.27;101304.31;4931010;29;20032;-73
2021/03/29 02:27:37;;;;;;;13.88;3.13;;;;;;;9.90;75.47;101305.41;4935490;29;20463;-74
2021/03/29 02:30:14;;;;;;;7.57;1.67;;;;;;;9.88;75.31;101304.81;4921697;29;20032;-75
2021/03/29 02:32:42;;;;;;;8.52;2.10;;;;;;;9.84;75.00;101298.19;4917527;29;20218;-75
2021/03/29 02:35:09;;;;;;;14.70;1.98;;;;;;;9.86;75.61;101306.13;4919069;29;20062;-75
2021/03/29 02:37:35;;;;;;;16.42;2.10;;;;;;;9.82;75.86;101294.84;4913236;29;20036;-74
2021/03/29 02:40:01;;;;;;;8.77;2.15;;;;;;;9.85;75.39;101310.75;4912212;29;20071;-74
2021/03/29 02:42:27;;;;;;;14.88;2.13;;;;;;;9.79;75.49;101296.16;4916453;29;20483;-76
2021/03/29 02:44:53;;;;;;;7.10;1.55;;;;;;;9.80;75.39;101291.53;4915779;29;20037;-75
2021/03/29 02:47:19;;;;;;;18.08;1.98;;;;;;;9.79;75.43;101289.88;4910143;29;20028;-74
2021/03/29 02:49:46;;;;;;;12.77;1.88;;;;;;;9.85;75.41;101310.75;4911344;29;20054;-73
2021/03/29 02:52:16;;;;;;;17.63;3.28;;;;;;;9.83;75.30;101307.44;4928424;29;20483;-74
2021/03/29 02:54:42;;;;;;;16.83;2.40;;;;;;;9.84;75.37;101309.09;4899821;29;20044;-75
2021/03/29 02:57:08;;;;;;;9.10;1.83;;;;;;;9.79;75.79;101312.53;4914163;29;20503;-76
2021/03/29 02:59:44;;;;;;;8.23;2.03;;;;;;;9.83;75.40;101321.09;4913750;29;20040;-75
2021/03/29 03:02:10;;;;;;;10.57;2.55;;;;;;;9.84;75.53;101316.47;4904352;29;20136;-74
2021/03/29 03:04:37;;;;;;;11.98;2.17;;;;;;;9.84;75.43;101336.44;4912968;29;20119;-75
2021/03/29 03:07:03;;;;;;;14.05;2.25;;;;;;;9.78;75.20;101305.44;4897101;29;20028;-74
2021/03/29 03:09:29;;;;;;;8.82;2.33;;;;;;;9.80;75.24;101318.84;4918861;29;20115;-75
2021/03/29 03:11:57;;;;;;;20.30;2.70;;;;;;;9.80;75.59;101313.38;4922465;29;20054;-74
2021/03/29 03:14:24;;;;;;;16.70;2.33;;;;;;;9.81;75.39;101309.56;4920971;29;20043;-74
2021/03/29 03:16:50;;;;;;;12.20;2.22;;;;;;;9.82;75.68;101316.69;4913586;29;20092;-73
2021/03/29 03:19:19;;;;;;;12.43;2.75;;;;;;;9.82;75.62;101313.97;4915575;29;20024;-74
2021/03/29 03:21:44;;;;;;;19.85;2.88;;;;;;;9.83;75.85;101317.50;4925890;29;20027;-75
2021/03/29 03:24:10;;;;;;;26.95;3.50;;;;;;;9.78;75.55;101318.25;4916523;29;20028;-75
2021/03/29 03:26:38;;;;;;;25.83;2.80;;;;;;;9.81;75.33;101327.88;4912499;29;20044;-74
2021/03/29 03:29:06;;;;;;;13.55;3.00;;;;;;;9.77;75.78;101308.41;4916886;29;20462;-73
2021/03/29 03:31:33;;;;;;;11.27;2.45;;;;;;;9.75;75.39;101300.44;4907075;29;20112;-73
2021/03/29 03:34:02;;;;;;;12.25;2.40;;;;;;;9.75;75.56;101307.78;4912330;29;20060;-74
2021/03/29 03:36:29;;;;;;;13.55;2.70;;;;;;;9.75;76.62;101316.84;4914938;29;20076;-73
2021/03/29 03:38:56;;;;;;;20.95;2.75;;;;;;;9.71;76.61;101314.81;4932949;29;20047;-75
2021/03/29 03:41:28;;;;;;;9.70;2.97;;;;;;;9.71;76.21;101320.25;4912964;29;20036;-73
2021/03/29 03:43:56;;;;;;;13.10;3.00;;;;;;;9.69;76.45;101314.22;4917587;29;20087;-72
2021/03/29 03:46:24;;;;;;;12.38;2.88;;;;;;;9.71;76.14;101320.25;4916530;29;20482;-73
2021/03/29 03:48:51;;;;;;;19.90;3.10;;;;;;;9.75;76.56;101324.19;4928119;29;20038;-74
2021/03/29 03:51:17;;;;;;;16.30;3.53;;;;;;;9.72;75.98;101320.03;4899327;29;20050;-75
2021/03/29 03:53:46;;;;;;;19.75;2.70;;;;;;;9.81;76.20;101320.50;4926364;29;20431;-76
2021/03/29 03:56:12;;;;;;;11.35;2.72;;;;;;;9.76;76.10;101314.94;4905596;29;20390;-75
2021/03/29 03:58:39;;;;;;;15.13;2.90;;;;;;;9.79;76.25;101333.56;4909362;29;20039;-73
2021/03/29 04:01:07;;;;;;;17.55;2.78;;;;;;;9.72;76.02;101324.66;4911184;29;20056;-74
2021/03/29 04:03:33;;;;;;;7.10;2.30;;;;;;;9.71;75.80;101325.72;4911269;29;20448;-73
2021/03/29 04:05:58;;;;;;;13.43;2.28;;;;;;;9.70;75.66;101329.53;4905379;29;20037;-73
2021/03/29 04:08:24;;;;;;;21.92;3.65;;;;;;;9.71;75.71;101332.03;4906465;29;20083;-73
2021/03/29 04:10:56;;;;;;;11.65;2.40;;;;;;;9.69;75.82;101344.25;4916846;29;20027;-73
2021/03/29 04:13:30;;;;;;;14.20;2.00;;;;;;;9.70;76.54;101340.47;4909733;29;20024;-73
2021/03/29 04:15:58;;;;;;;7.63;1.98;;;;;;;9.69;76.65;101339.63;4911852;29;20039;-73
2021/03/29 04:18:24;;;;;;;14.27;2.60;;;;;;;9.72;76.12;101346.50;4910995;29;20056;-73
2021/03/29 04:20:50;;;;;;;11.43;2.58;;;;;;;9.71;76.21;101342.09;4898506;29;20046;-73
2021/03/29 04:23:18;;;;;;;8.93;1.42;;;;;;;9.73;76.43;101342.72;4913532;29;20028;-73
2021/03/29 04:25:43;;;;;;;9.07;2.10;;;;;;;9.71;75.61;101347.56;4912763;29;20042;-73
2021/03/29 04:28:09;;;;;;;15.88;2.15;;;;;;;9.72;76.30;101343.78;4901846;29;20029;-74
2021/03/29 04:30:34;;;;;;;17.90;2.45;;;;;;;9.75;75.52;101359.69;4910990;29;20024;-73
2021/03/29 04:33:00;;;;;;;10.40;2.15;;;;;;;9.65;76.11;101354.00;4908298;29;20034;-73
2021/03/29 04:35:25;;;;;;;17.05;2.00;;;;;;;9.69;76.17;101349.72;4913298;29;20173;-73
2021/03/29 04:37:52;;;;;;;6.90;1.98;;;;;;;9.67;75.71;101355.44;4902978;29;20051;-73
2021/03/29 04:40:20;;;;;;;13.10;2.50;;;;;;;9.67;75.63;101371.00;4919551;29;20035;-73
2021/03/29 04:42:46;;;;;;;7.72;1.88;;;;;;;9.68;75.95;101356.25;4921117;29;20035;-74
2021/03/29 04:45:12;;;;;;;17.30;2.90;;;;;;;9.69;76.21;101366.09;4924312;29;20431;-74
2021/03/29 04:47:38;;;;;;;6.50;2.15;;;;;;;9.66;76.56;101356.47;4911728;29;20087;-74
2021/03/29 04:50:06;;;;;;;12.02;2.42;;;;;;;9.58;76.46;101371.31;4903306;29;20036;-73
2021/03/29 04:52:32;;;;;;;14.93;3.03;;;;;;;9.56;76.33;101365.28;4904855;29;20111;-74
2021/03/29 04:54:58;;;;;;;8.52;2.08;;;;;;;9.57;76.51;101369.66;4910197;29;20037;-73
2021/03/29 04:57:23;;;;;;;17.17;2.38;;;;;;;9.64;77.15;101361.38;4913982;29;20027;-74
2021/03/29 04:59:49;;;;;;;9.48;1.80;;;;;;;9.71;76.14;101375.75;4898844;29;20105;-73
2021/03/29 05:02:14;;;;;;;16.13;2.72;;;;;;;9.74;75.83;101379.91;4901177;29;20128;-73
2021/03/29 05:04:40;;;;;;;16.38;2.58;;;;;;;9.70;76.03;101378.72;4900683;29;20039;-72
2021/03/29 05:07:13;;;;;;;13.65;2.60;;;;;;;9.69;76.49;101390.69;4898961;29;20078;-71
2021/03/29 05:09:39;;;;;;;5.32;2.00;;;;;;;9.65;76.68;101384.03;4906514;29;20114;-72
2021/03/29 05:12:11;;;;;;;16.10;2.10;;;;;;;9.68;76.81;101383.56;4907163;29;20064;-75
2021/03/29 05:14:39;;;;;;;16.85;2.35;;;;;;;9.66;76.65;101389.25;4916262;29;20062;-75
2021/03/29 05:17:08;;;;;;;16.92;2.83;;;;;;;9.66;76.13;101389.25;4909757;29;21920;-76
2021/03/29 05:19:34;;;;;;;9.30;2.00;;;;;;;9.63;76.23;101389.72;4912257;29;20430;-75
2021/03/29 05:22:01;;;;;;;8.27;1.80;;;;;;;9.69;77.01;101398.88;4916796;29;20020;-76
2021/03/29 05:24:27;;;;;;;7.50;1.88;;;;;;;9.69;76.54;101387.97;4913354;29;20032;-77
2021/03/29 05:26:52;;;;;;;8.20;2.40;;;;;;;9.69;76.45;101387.97;4918431;29;20031;-78
2021/03/29 05:29:18;;;;;;;9.70;2.20;;;;;;;9.72;75.88;101384.75;4915477;29;20039;-79
2021/03/29 05:31:44;;;;;;;14.77;2.13;;;;;;;9.70;76.87;101381.44;4918401;29;20046;-78
2021/03/29 05:34:11;;;;;;;10.82;1.98;;;;;;;9.71;76.53;101396.72;4913767;29;20023;-77
2021/03/29 05:36:41;;;;;;;20.20;2.35;;;;;;;9.68;76.45;101389.03;4919850;29;20032;-77
2021/03/29 05:39:09;;;;;;;6.93;1.65;;;;;;;9.76;76.75;101391.41;4903310;29;20080;-77
2021/03/29 05:41:38;;;;;;;7.47;1.98;;;;;;;9.76;75.57;101389.50;4916504;29;20031;-76
2021/03/29 05:44:03;;;;;;;4.85;1.63;;;;;;;9.81;75.99;101391.50;4935778;29;20024;-77
2021/03/29 05:46:29;;;;;;;13.45;2.65;;;;;;;9.82;76.42;101392.38;4928460;29;20091;-75
2021/03/29 05:48:54;;;;;;;20.70;2.63;;;;;;;9.76;76.27;101399.59;4928989;29;20039;-78
2021/03/29 05:51:20;;;;;;;12.63;3.17;;;;;;;9.79;76.37;101393.66;4910311;29;20096;-77
2021/03/29 05:53:45;;;;;;;6.70;1.95;;;;;;;9.83;76.36;101400.31;4916101;29;20486;-75
2021/03/29 05:56:13;;;;;;;9.52;2.17;;;;;;;9.85;75.84;101391.88;4917287;29;20043;-76
2021/03/29 05:58:56;;;;;;;8.25;2.22;;;;;;;9.84;75.78;101396.53;4926489;29;20024;-77
2021/03/29 06:01:21;;;;;;;12.50;1.83;;;;;;;9.87;76.25;101396.06;4917762;29;20047;-77
2021/03/29 06:03:47;;;;;;;10.88;2.38;;;;;;;9.88;76.16;101397.69;4920426;29;20047;-75
2021/03/29 06:06:12;;;;;;;5.55;1.75;;;;;;;9.86;75.99;101399.84;4910520;29;20032;-77
2021/03/29 06:08:43;;;;;;;15.15;2.92;;;;;;;9.91;75.89;101396.41;4913669;29;20032;-76
2021/03/29 06:11:49;;;;;;;9.65;1.67;;;;;;;9.92;75.58;101398.88;4912225;29;20521;-76
2021/03/29 06:14:16;;;;;;;14.20;2.45;;;;;;;9.91;76.00;101399.13;4902137;29;20044;-76
2021/03/29 06:17:07;;;;;;;9.52;1.75;;;;;;;9.94;75.93;101412.31;4909718;29;20035;-76
2021/03/29 06:19:43;;;;;;;9.70;2.70;;;;;;;9.95;75.73;101412.06;4906174;29;20039;-75
2021/03/29 06:22:14;;;;;;;10.93;1.85;;;;;;;9.92;76.00;101403.53;4917214;29;20071;-78
2021/03/29 06:25:03;;;;;;;9.23;2.30;;;;;;;9.92;75.34;101409.81;4910145;29;20420;-76
2021/03/29 06:27:40;;;;;;;11.00;1.60;;;;;;;9.92;75.72;101409.81;4918048;29;20099;-76
2021/03/29 06:30:30;;;;;;;10.85;1.77;;;;;;;9.94;75.84;101407.69;4922423;29;20127;-78
2021/03/29 06:33:03;;;;;;;7.22;1.90;;;;;;;10.03;75.71;101420.97;4917623;29;20032;-79
2021/03/29 06:35:39;;;;;;;3.90;2.13;;;;;;;9.99;75.74;101409.72;4924214;29;20064;-77
2021/03/29 06:38:09;;;;;;;14.30;3.58;;;;;;;10.02;75.66;101427.53;4910460;29;20021;-76
2021/03/29 06:40:36;;;;;;;22.15;2.08;;;;;;;10.01;76.09;101426.69;4930022;29;20054;-78
2021/03/29 06:43:21;;;;;;;9.93;3.30;;;;;;;10.08;75.59;101434.78;4926273;29;20019;-77
2021/03/29 06:45:50;;;;;;;11.68;2.33;;;;;;;9.98;75.52;101423.59;4920467;29;20028;-78
2021/03/29 06:48:25;;;;;;;6.00;2.20;;;;;;;10.06;75.96;101439.63;4918845;29;20024;-79
2021/03/29 06:51:02;;;;;;;14.48;1.95;;;;;;;10.11;75.83;101443.31;4915263;29;20035;-79
2021/03/29 06:53:28;;;;;;;5.00;1.55;;;;;;;10.12;75.60;101441.44;4914156;29;20040;-79
2021/03/29 06:55:57;;;;;;;8.25;1.58;;;;;;;10.13;75.66;101454.00;4934390;29;20046;-79
2021/03/29 06:58:26;;;;;;;2.22;1.35;;;;;;;10.12;75.55;101452.38;4929360;29;20387;-77
2021/03/29 07:00:57;;;;;;;26.70;2.45;;;;;;;10.05;75.77;101452.47;4905270;29;20045;-78
2021/03/29 07:03:23;;;;;;;8.13;2.13;;;;;;;10.12;76.00;101463.31;4906761;29;20035;-78
2021/03/29 07:05:51;;;;;;;13.40;2.70;;;;;;;10.09;75.52;101452.81;4918442;29;20051;-77
2021/03/29 07:08:19;;;;;;;9.50;1.60;;;;;;;10.13;76.35;101448.53;4923953;29;20020;-79
2021/03/29 07:10:53;;;;;;;9.75;2.00;;;;;;;10.19;76.23;101461.28;4915291;29;20036;-78
2021/03/29 07:13:21;;;;;;;7.65;2.38;;;;;;;10.14;76.25;101461.16;4913887;29;20470;-73
2021/03/29 07:15:48;;;;;;;11.20;2.50;;;;;;;10.18;75.42;101473.28;4908529;29;20063;-74
2021/03/29 07:18:19;;;;;;;11.35;3.45;;;;;;;10.21;75.31;101464.59;4910460;29;20064;-76
2021/03/29 07:20:45;;;;;;;11.25;1.98;;;;;;;10.20;75.75;101460.19;4911629;29;20039;-74
2021/03/29 07:23:15;;;;;;;19.02;3.17;;;;;;;10.25;75.62;101474.00;4914060;29;20122;-74
2021/03/29 07:25:44;;;;;;;10.32;2.05;;;;;;;10.21;75.84;101474.72;4902665;29;20502;-74
2021/03/29 07:28:20;;;;;;;11.60;2.35;;;;;;;10.14;75.55;101474.81;4912649;29;20060;-76
2021/03/29 07:30:50;;;;;;;11.90;2.72;;;;;;;10.06;75.35;101458.75;4899477;29;20817;-75
2021/03/29 07:33:18;;;;;;;6.38;1.92;;;;;;;10.11;75.92;101465.19;4917077;29;20028;-75
2021/03/29 07:36:13;;;;;;;1.95;1.80;;;;;;;10.21;75.54;101483.72;4904711;29;20084;-75
2021/03/29 07:39:04;;;;;;;4.70;2.20;;;;;;;10.21;75.58;101478.25;4910705;29;20127;-77
2021/03/29 07:42:10;;;;;;;11.85;2.30;;;;;;;10.27;75.50;101493.72;4916107;29;20020;-78
2021/03/29 07:44:58;;;;;;;13.52;3.88;;;;;;;10.28;75.61;101489.91;4913702;29;20532;-75
2021/03/29 07:47:49;;;;;;;15.93;3.70;;;;;;;10.30;75.32;101493.22;4914322;29;20085;-76
2021/03/29 07:50:44;;;;;;;6.90;2.92;;;;;;;10.26;75.58;101486.56;4900712;29;20123;-76
2021/03/29 07:53:22;;;;;;;11.43;2.90;;;;;;;10.36;75.54;101504.31;4891495;29;20719;-76
2021/03/29 07:55:51;;;;;;;7.50;2.47;;;;;;;10.34;75.41;101487.31;4918945;29;20560;-74
2021/03/29 07:58:26;;;;;;;9.35;3.13;;;;;;;10.31;75.67;101494.91;4917636;29;20032;-76
2021/03/29 08:01:05;;;;;;;21.50;3.95;;;;;;;10.36;75.14;101507.06;4914741;28;20826;-75
2021/03/29 08:03:31;;;;;;;17.35;3.75;;;;;;;10.39;75.45;101503.84;4901947;29;20038;-76
2021/03/29 08:06:04;;;;;;;11.48;2.80;;;;;;;10.39;75.35;101492.91;4907284;29;20032;-76
2021/03/29 08:08:32;;;;;;;6.57;2.00;;;;;;;10.54;75.30;101509.69;4909518;29;20051;-76
2021/03/29 08:11:10;;;;;;;9.88;2.05;;;;;;;10.63;74.60;101513.69;4913441;29;20036;-77
2021/03/29 08:13:49;;;;;;;6.05;2.17;;;;;;;10.76;74.31;101518.09;4917041;29;20024;-77
2021/03/29 08:16:22;;;;;;;8.98;2.45;;;;;;;10.83;74.17;101512.47;4910514;29;20020;-75
2021/03/29 08:19:09;;;;;;;6.20;2.35;;;;;;;10.91;73.68;101514.84;4914709;29;20031;-75
2021/03/29 08:21:47;;;;;;;16.02;3.58;;;;;;;10.88;73.42;101519.94;4921373;29;20034;-74
2021/03/29 08:24:17;;;;;;;3.95;2.03;;;;;;;10.90;73.88;101507.69;4900640;29;20055;-74
2021/03/29 08:26:42;;;;;;;16.40;3.53;;;;;;;10.93;73.24;101534.56;4917484;29;20032;-75
2021/03/29 08:29:13;;;;;;;13.45;2.78;;;;;;;10.96;73.00;101550.50;4920015;29;20034;-76
2021/03/29 08:32:00;;;;;;;15.27;3.50;;;;;;;11.04;72.87;101534.78;4921472;29;20028;-75
2021/03/29 08:34:26;;;;;;;15.00;3.55;;;;;;;11.02;72.55;101531.47;4904792;29;20480;-75
2021/03/29 08:36:58;;;;;;;9.20;2.13;;;;;;;11.14;73.05;101524.91;4906244;29;20041;-74
2021/03/29 08:39:24;;;;;;;15.48;3.20;;;;;;;11.21;72.99;101530.22;4911166;29;20048;-74
2021/03/29 08:41:51;;;;;;;12.18;2.25;;;;;;;11.27;72.22;101529.25;4911009;29;20513;-75
2021/03/29 08:44:20;;;;;;;12.32;2.88;;;;;;;11.29;72.49;101529.84;4908074;29;20028;-73
2021/03/29 08:46:50;;;;;;;8.10;2.50;;;;;;;11.23;72.35;101519.88;4906422;29;20122;-73
2021/03/29 08:49:19;;;;;;;16.95;2.50;;;;;;;11.33;72.38;101535.66;4911916;29;20111;-74
2021/03/29 08:51:45;;;;;;;11.68;2.47;;;;;;;11.38;72.51;101521.25;4908287;29;20435;-74
2021/03/29 08:54:11;;;;;;;12.30;2.70;;;;;;;11.55;72.21;101535.81;4905023;29;20040;-74
2021/03/29 08:56:44;;;;;;;15.73;2.30;;;;;;;11.63;71.31;101529.91;4911820;29;20574;-75
2021/03/29 08:59:11;;;;;;;9.38;1.90;;;;;;;11.67;70.49;101538.50;4912915;29;20032;-75
2021/03/29 09:01:41;;;;;;;5.68;1.40;;;;;;;11.66;71.02;101531.34;4901955;29;20058;-76
2021/03/29 09:04:11;;;;;;;10.60;1.92;;;;;;;11.77;70.79;101537.81;4888306;29;20111;-75
2021/03/29 09:06:37;;;;;;;8.85;2.10;;;;;;;11.85;70.76;101534.69;4916018;29;20896;-76
2021/03/29 09:09:21;;;;;;;12.20;2.97;;;;;;;11.95;70.21;101540.38;4909339;29;20017;-76
2021/03/29 09:11:51;;;;;;;15.73;2.97;;;;;;;11.98;69.71;101541.81;4911383;29;20506;-75
2021/03/29 09:14:24;;;;;;;8.20;2.78;;;;;;;12.09;70.51;101538.16;4912839;29;20436;-75
2021/03/29 09:17:00;;;;;;;8.20;1.98;;;;;;;12.10;69.16;101541.72;4902564;29;20033;-76
2021/03/29 09:19:34;;;;;;;9.30;1.73;;;;;;;12.08;69.82;101527.44;4912056;29;20527;-77
2021/03/29 09:22:02;;;;;;;8.05;2.63;;;;;;;12.17;69.24;101536.91;4886450;29;20040;-74
2021/03/29 09:24:29;;;;;;;14.68;2.28;;;;;;;12.30;69.27;101552.19;4895727;29;20083;-75
2021/03/29 09:27:02;;;;;;;7.18;1.85;;;;;;;12.33;68.35;101568.97;4908005;29;20052;-76
2021/03/29 09:29:40;;;;;;;6.88;1.50;;;;;;;12.40;68.44;101555.09;4909866;29;20031;-75
2021/03/29 09:32:24;;;;;;;5.10;2.33;;;;;;;12.50;68.04;101551.66;4914542;29;20037;-77
2021/03/29 09:34:52;;;;;;;10.75;2.65;;;;;;;12.60;67.98;101557.31;4903552;29;20028;-76
2021/03/29 09:37:28;;;;;;;7.57;1.73;;;;;;;12.69;67.73;101566.78;4913435;29;20032;-75
2021/03/29 09:40:04;;;;;;;16.27;2.40;;;;;;;12.79;66.70;101560.63;4907150;29;20586;-77
2021/03/29 09:42:43;;;;;;;11.80;3.33;;;;;;;12.87;66.91;101568.38;4916876;29;20039;-75
2021/03/29 09:45:21;;;;;;;7.88;2.38;;;;;;;12.86;65.79;101563.16;4915824;29;20465;-74
2021/03/29 09:48:08;;;;;;;7.35;3.38;;;;;;;12.92;66.55;101564.88;4916774;29;20039;-78
2021/03/29 09:50:36;;;;;;;12.75;2.63;;;;;;;12.77;65.95;101564.69;4915694;29;20031;-78
2021/03/29 09:53:13;;;;;;;7.63;2.10;;;;;;;12.91;65.79;101568.72;4918049;29;20154;-78
2021/03/29 09:55:40;;;;;;;11.90;3.28;;;;;;;12.93;65.62;101561.06;4902901;29;20038;-76
2021/03/29 09:58:21;;;;;;;6.78;2.95;;;;;;;13.12;65.92;101564.31;4885607;29;20037;-76
2021/03/29 10:00:51;;;;;;;10.00;3.20;;;;;;;13.27;64.87;101571.91;4908193;29;20485;-74
2021/03/29 10:03:18;;;;;;;11.27;3.08;;;;;;;13.38;64.61;101571.00;4909079;29;20044;-75
2021/03/29 10:05:45;;;;;;;13.40;3.28;;;;;;;13.50;64.34;101570.03;4910064;29;20032;-75
2021/03/29 10:08:11;;;;;;;9.63;4.05;;;;;;;13.64;64.12;101576.78;4898100;29;20080;-76
2021/03/29 10:10:37;;;;;;;8.60;3.63;;;;;;;13.77;63.77;101592.84;4918078;29;20024;-74
2021/03/29 10:13:16;;;;;;;3.00;2.17;;;;;;;13.91;62.96;101586.94;4912451;29;20047;-76
2021/03/29 10:15:42;;;;;;;14.25;3.33;;;;;;;14.02;62.60;101599.69;4912177;29;20060;-75
2021/03/29 10:18:13;;;;;;;17.83;3.97;;;;;;;13.99;62.20;101593.88;4909919;29;20078;-74
2021/03/29 10:20:43;;;;;;;12.40;3.38;;;;;;;14.01;62.73;101587.03;4916782;29;20517;-74
2021/03/29 10:23:29;;;;;;;18.73;3.80;;;;;;;14.11;62.50;101591.81;4921951;29;20026;-76
2021/03/29 10:26:20;;;;;;;19.67;4.22;;;;;;;14.27;62.25;101590.03;4930497;29;20057;-75
2021/03/29 10:29:04;;;;;;;8.75;2.90;;;;;;;14.57;61.17;101591.34;4924200;29;20051;-75
2021/03/29 10:31:31;;;;;;;10.00;3.38;;;;;;;14.82;59.78;101585.19;4926667;29;20087;-76
2021/03/29 10:34:07;;;;;;;10.27;3.22;;;;;;;15.18;58.95;101588.94;4933288;29;20032;-74
2021/03/29 10:36:32;;;;;;;9.23;4.60;;;;;;;15.41;57.57;101592.38;4904716;29;20051;-74
2021/03/29 10:38:58;;;;;;;12.80;3.47;;;;;;;15.46;57.15;101588.78;4921193;29;20693;-75
2021/03/29 10:41:36;;;;;;;;;;;;;;;;;;;;;
2021/03/29 10:44:01;;;;;;;10.23;3.20;;;;;;;16.16;58.02;101596.69;4912015;29;20021;-75
2021/03/29 10:46:28;;;;;;;11.27;2.33;;;;;;;17.02;54.74;101592.19;4908969;29;20059;-75
2021/03/29 10:48:53;;;;;;;16.90;3.75;;;;;;;17.49;52.10;101612.16;4920727;29;20055;-74
2021/03/29 10:51:29;;;;;;;14.13;3.58;;;;;;;18.05;51.65;101591.69;4908058;29;20032;-74
2021/03/29 10:53:55;;;;;;;9.95;3.60;;;;;;;18.90;49.00;101589.53;4893886;29;20043;-76
2021/03/29 10:56:20;;;;;;;13.05;2.42;;;;;;;20.10;48.71;101595.19;4923233;29;20066;-76
2021/03/29 10:58:48;;;;;;;9.32;2.97;;;;;;;21.06;43.40;101597.34;4916969;29;20028;-75
2021/03/29 11:01:16;;;;;;;11.50;2.65;;;;;;;21.81;43.96;101583.25;4908779;29;20064;-73
2021/03/29 11:03:42;;;;;;;5.95;2.00;;;;;;;22.59;41.42;101596.09;4896039;29;20044;-73
2021/03/29 11:06:07;;;;;;;12.90;2.28;;;;;;;22.82;39.19;101591.31;4911600;29;20040;-72
2021/03/29 11:08:33;;;;;;;7.07;2.42;;;;;;;22.73;37.52;101585.69;4917388;29;20436;-74
2021/03/29 11:10:58;;;;;;;4.63;1.90;;;;;;;22.77;36.94;101585.88;4910663;29;20091;-73
2021/03/29 11:13:24;;;;;;;15.55;1.88;;;;;;;22.94;37.98;101593.47;4913479;29;20337;-72
2021/03/29 11:15:51;;;;;;;11.93;1.98;;;;;;;23.34;36.49;101587.91;4920027;29;20059;-74
2021/03/29 11:18:18;;;;;;;5.97;1.70;;;;;;;23.92;37.38;101596.19;4918338;29;20059;-72
2021/03/29 11:20:46;;;;;;;5.07;2.65;;;;;;;24.36;34.73;101589.41;4891311;29;20131;-74
2021/03/29 11:23:11;;;;;;;12.20;2.78;;;;;;;24.53;34.17;101596.13;4894113;29;20782;-73
2021/03/29 11:25:39;;;;;;;6.40;2.00;;;;;;;24.64;32.57;101599.41;4912525;29;20048;-73
2021/03/29 11:28:05;;;;;;;6.53;2.15;;;;;;;24.86;31.88;101596.34;4919210;29;20028;-75
2021/03/29 11:30:30;;;;;;;7.93;1.83;;;;;;;25.11;32.99;101604.16;4913173;29;20579;-74
2021/03/29 11:32:56;;;;;;;6.63;1.52;;;;;;;25.59;31.36;101600.91;4899381;29;20039;-73
2021/03/29 11:35:21;;;;;;;7.13;2.08;;;;;;;26.02;30.23;101600.94;4907442;29;20118;-77
2021/03/29 11:37:47;;;;;;;10.13;2.97;;;;;;;25.98;28.78;101594.34;4914042;29;20032;-74